Time;durP1;ratioP1;P1;durP2;ratioP2;P2;SDS_P1;SDS_P2;PMS_P1;PMS_P2;Temp;Humidity;BMP_temperature;BMP_pressure;BME280_temperature;BME280_humidity;BME280_pressure;Samples;Min_cycle;Max_cycle;Signal;HPM_P1;HPM_P2
2021/01/12 00:01:10;;;;;;;3.20;2.25;;;17.40;53.20;;;;;;5087129;28;20178;-66
2021/01/12 00:03:36;;;;;;;2.25;1.98;;;17.40;53.20;;;;;;5069625;28;20182;-66
2021/01/12 00:06:01;;;;;;;2.95;2.17;;;17.30;53.20;;;;;;5087508;28;20252;-66
2021/01/12 00:08:27;;;;;;;2.83;2.13;;;17.30;53.20;;;;;;5087491;28;20256;-66
2021/01/12 00:10:53;;;;;;;2.63;2.42;;;17.30;53.20;;;;;;5086839;28;20185;-66
2021/01/12 00:13:18;;;;;;;2.20;2.00;;;17.30;53.20;;;;;;5087005;28;20177;-67
2021/01/12 00:15:44;;;;;;;2.90;2.17;;;17.20;53.10;;;;;;5069240;28;20177;-66
2021/01/12 00:18:09;;;;;;;1.90;1.80;;;17.20;53.10;;;;;;5086930;28;20232;-66
2021/01/12 00:20:35;;;;;;;2.33;1.80;;;17.20;53.10;;;;;;5087175;28;20542;-65
2021/01/12 00:23:00;;;;;;;3.65;2.20;;;17.20;53.20;;;;;;5086549;28;20252;-65
2021/01/12 00:25:26;;;;;;;2.35;2.15;;;17.20;53.20;;;;;;5086229;28;20680;-65
2021/01/12 00:27:52;;;;;;;2.75;2.13;;;17.20;53.20;;;;;;5086541;28;20188;-65
2021/01/12 00:30:18;;;;;;;2.13;1.92;;;17.20;53.20;;;;;;5086750;28;20184;-66
2021/01/12 00:32:43;;;;;;;1.90;1.75;;;17.20;53.20;;;;;;5086580;28;20214;-65
2021/01/12 00:35:09;;;;;;;2.13;1.92;;;17.10;53.20;;;;;;5086921;28;20170;-65
2021/01/12 00:37:35;;;;;;;1.98;1.88;;;17.10;53.20;;;;;;5086548;28;20190;-65
2021/01/12 00:40:00;;;;;;;1.60;1.50;;;17.10;53.20;;;;;;5086533;28;20197;-65
2021/01/12 00:42:26;;;;;;;2.35;2.13;;;17.10;53.20;;;;;;5086379;28;20183;-66
2021/01/12 00:44:51;;;;;;;2.05;1.95;;;17.20;53.30;;;;;;5086592;28;20542;-66
2021/01/12 00:47:17;;;;;;;1.77;1.67;;;17.10;53.20;;;;;;5086389;28;20174;-66
2021/01/12 00:49:42;;;;;;;1.83;1.73;;;17.10;53.30;;;;;;5086259;28;20291;-67
2021/01/12 00:52:09;;;;;;;2.25;2.05;;;17.10;53.30;;;;;;5086155;28;20523;-66
2021/01/12 00:54:35;;;;;;;2.50;1.70;;;17.00;53.20;;;;;;5086276;28;20177;-67
2021/01/12 00:57:00;;;;;;;2.72;1.88;;;17.00;53.20;;;;;;5068216;28;20583;-66
2021/01/12 00:59:26;;;;;;;2.00;1.80;;;17.00;53.20;;;;;;5086093;28;20201;-67
2021/01/12 01:01:52;;;;;;;1.70;1.60;;;16.90;53.20;;;;;;5085857;28;20182;-65
2021/01/12 01:04:17;;;;;;;1.85;1.65;;;17.00;53.20;;;;;;5086120;28;20612;-64
2021/01/12 01:06:43;;;;;;;2.20;1.77;;;17.00;53.20;;;;;;5086245;28;20178;-65
2021/01/12 01:09:09;;;;;;;1.77;1.67;;;17.00;53.20;;;;;;5067767;28;20170;-67
2021/01/12 01:11:45;;;;;;;1.98;1.58;;;16.90;53.20;;;;;;5085739;28;20174;-66
2021/01/12 01:14:11;;;;;;;1.73;1.50;;;16.90;53.20;;;;;;5067852;28;21084;-67
2021/01/12 01:16:37;;;;;;;1.58;1.48;;;16.90;53.20;;;;;;5067840;28;20189;-67
2021/01/12 01:19:03;;;;;;;2.17;1.70;;;16.90;53.20;;;;;;5085817;28;20231;-67
2021/01/12 01:21:28;;;;;;;2.42;1.58;;;16.90;53.20;;;;;;5085890;28;20181;-66
2021/01/12 01:23:54;;;;;;;1.60;1.50;;;16.90;53.20;;;;;;5085760;28;20230;-67
2021/01/12 01:26:19;;;;;;;2.55;1.92;;;16.90;53.30;;;;;;5085701;28;20931;-66
2021/01/12 01:28:45;;;;;;;1.98;1.50;;;16.90;53.30;;;;;;5067516;28;20201;-66
2021/01/12 01:31:11;;;;;;;2.55;1.73;;;16.90;53.30;;;;;;5085434;28;20223;-66
2021/01/12 01:33:36;;;;;;;1.77;1.67;;;16.80;53.20;;;;;;5085037;28;20256;-65
2021/01/12 01:36:02;;;;;;;1.50;1.40;;;16.90;53.20;;;;;;5085540;28;20185;-65
2021/01/12 01:38:27;;;;;;;1.48;1.38;;;16.80;53.20;;;;;;5085019;28;20260;-65
2021/01/12 01:40:59;;;;;;;2.60;1.75;;;16.80;53.20;;;;;;5085144;28;20639;-66
2021/01/12 01:43:24;;;;;;;1.80;1.50;;;16.80;53.20;;;;;;5085447;28;20208;-66
2021/01/12 01:45:53;;;;;;;2.03;1.67;;;16.80;53.20;;;;;;5085504;28;20530;-66
2021/01/12 01:48:19;;;;;;;1.83;1.50;;;16.80;53.20;;;;;;5067201;28;20166;-66
2021/01/12 01:50:45;;;;;;;1.83;1.70;;;16.80;53.20;;;;;;5066930;28;20196;-67
2021/01/12 01:53:10;;;;;;;1.50;1.40;;;16.80;53.20;;;;;;5085084;28;20201;-65
2021/01/12 01:55:37;;;;;;;1.60;1.50;;;16.80;53.20;;;;;;5050274;28;20720;-66
2021/01/12 01:58:03;;;;;;;1.85;1.70;;;16.80;53.20;;;;;;5085104;28;20628;-64
2021/01/12 02:00:29;;;;;;;1.58;1.48;;;16.80;53.20;;;;;;5066540;28;20640;-66
2021/01/12 02:03:06;;;;;;;1.63;1.52;;;16.80;53.20;;;;;;5085089;28;20177;-66
2021/01/12 02:05:33;;;;;;;1.52;1.42;;;16.80;53.30;;;;;;5067100;28;20185;-66
2021/01/12 02:08:03;;;;;;;1.67;1.40;;;16.80;53.30;;;;;;5067072;28;20411;-66
2021/01/12 02:10:28;;;;;;;1.48;1.38;;;16.70;53.20;;;;;;5050893;28;20178;-65
2021/01/12 02:12:59;;;;;;;1.50;1.40;;;16.70;53.20;;;;;;5050359;28;20527;-66
2021/01/12 02:15:24;;;;;;;1.58;1.35;;;16.70;53.20;;;;;;5084873;28;20176;-66
2021/01/12 02:17:50;;;;;;;1.42;1.33;;;16.70;53.30;;;;;;5049898;28;20604;-67
2021/01/12 02:20:16;;;;;;;1.60;1.50;;;16.70;53.20;;;;;;5066405;28;20208;-67
2021/01/12 02:22:43;;;;;;;1.60;1.42;;;16.70;53.30;;;;;;5084663;28;20174;-66
2021/01/12 02:25:09;;;;;;;1.75;1.30;;;16.70;53.30;;;;;;5050214;28;20172;-66
2021/01/12 02:27:35;;;;;;;1.52;1.30;;;16.70;53.20;;;;;;5066397;28;20181;-67
2021/01/12 02:30:00;;;;;;;1.45;1.35;;;16.70;53.30;;;;;;5084886;28;20639;-66
2021/01/12 02:32:26;;;;;;;1.77;1.30;;;16.60;53.20;;;;;;5084587;28;20240;-66
2021/01/12 02:34:52;;;;;;;1.48;1.33;;;16.70;53.90;;;;;;5066301;28;20655;-65
2021/01/12 02:37:18;;;;;;;2.08;1.48;;;16.60;53.20;;;;;;5049789;28;20170;-66
2021/01/12 02:39:44;;;;;;;1.50;1.40;;;16.60;53.20;;;;;;5083784;28;20209;-66
2021/01/12 02:42:16;;;;;;;1.35;1.25;;;16.70;53.30;;;;;;5066331;28;20178;-66
2021/01/12 02:44:42;;;;;;;1.40;1.30;;;16.60;53.30;;;;;;5049959;28;20517;-67
2021/01/12 02:47:07;;;;;;;2.00;1.50;;;16.60;53.20;;;;;;5084357;28;20177;-67
2021/01/12 02:49:33;;;;;;;1.30;1.17;;;16.60;53.20;;;;;;5083157;28;20560;-67
2021/01/12 02:51:59;;;;;;;1.40;1.30;;;16.60;53.30;;;;;;5084449;28;20178;-66
2021/01/12 02:54:25;;;;;;;1.30;1.20;;;16.60;53.30;;;;;;5084473;28;20212;-66
2021/01/12 02:56:51;;;;;;;1.30;1.20;;;16.60;53.30;;;;;;5084117;28;20166;-67
2021/01/12 02:59:16;;;;;;;1.40;1.30;;;16.60;53.40;;;;;;5084525;28;20230;-67
2021/01/12 03:01:42;;;;;;;1.20;1.10;;;16.50;53.30;;;;;;5084459;28;20169;-66
2021/01/12 03:04:07;;;;;;;1.40;1.30;;;16.50;53.30;;;;;;5084020;28;20218;-66
2021/01/12 03:06:33;;;;;;;1.30;1.20;;;16.60;53.30;;;;;;5066312;28;20220;-67
2021/01/12 03:08:59;;;;;;;1.50;1.10;;;16.60;53.30;;;;;;5084044;28;20189;-67
2021/01/12 03:11:25;;;;;;;1.30;1.20;;;16.60;53.40;;;;;;5084045;28;20173;-67
2021/01/12 03:13:51;;;;;;;1.35;1.25;;;16.60;53.40;;;;;;5083987;28;20166;-67
2021/01/12 03:16:17;;;;;;;1.33;1.23;;;16.50;53.40;;;;;;5083764;28;20987;-67
2021/01/12 03:18:42;;;;;;;1.17;1.10;;;16.50;53.40;;;;;;5083641;28;20205;-66
2021/01/12 03:21:08;;;;;;;1.17;1.08;;;16.50;53.40;;;;;;5084059;28;20209;-67
2021/01/12 03:23:34;;;;;;;1.35;1.25;;;16.50;53.40;;;;;;5066005;28;20257;-66
2021/01/12 03:26:00;;;;;;;1.20;1.13;;;16.50;53.40;;;;;;5084018;28;20269;-66
2021/01/12 03:28:25;;;;;;;0.98;0.95;;;16.50;53.40;;;;;;5083324;28;20221;-65
2021/01/12 03:30:51;;;;;;;1.00;1.00;;;16.50;53.40;;;;;;5083900;28;20182;-65
2021/01/12 03:33:16;;;;;;;1.00;1.00;;;16.50;53.40;;;;;;5083715;28;20181;-67
2021/01/12 03:35:42;;;;;;;1.20;1.10;;;16.50;53.40;;;;;;5083725;28;20178;-66
2021/01/12 03:38:07;;;;;;;1.45;1.20;;;16.50;53.40;;;;;;5083589;28;20201;-66
2021/01/12 03:40:33;;;;;;;1.23;0.93;;;16.50;53.40;;;;;;5083704;28;20221;-67
2021/01/12 03:42:58;;;;;;;1.20;1.10;;;16.50;53.50;;;;;;5066005;28;21013;-66
2021/01/12 03:45:24;;;;;;;1.27;1.17;;;16.40;53.40;;;;;;5083799;28;20697;-67
2021/01/12 03:47:50;;;;;;;1.00;0.90;;;16.40;53.40;;;;;;5065877;28;20257;-67
2021/01/12 03:50:15;;;;;;;1.45;1.30;;;16.40;53.40;;;;;;5083582;28;20223;-67
2021/01/12 03:52:41;;;;;;;1.73;1.15;;;16.40;53.40;;;;;;5083843;28;20223;-67
2021/01/12 03:55:07;;;;;;;1.08;0.98;;;16.40;53.40;;;;;;5083646;28;20177;-66
2021/01/12 03:57:32;;;;;;;1.17;1.10;;;16.40;53.40;;;;;;5083599;28;20181;-66
2021/01/12 03:59:58;;;;;;;1.10;1.00;;;16.40;53.40;;;;;;5083419;28;20210;-65
2021/01/12 04:02:23;;;;;;;0.98;0.80;;;16.40;53.40;;;;;;5087534;28;20182;-65
2021/01/12 04:04:49;;;;;;;1.35;1.25;;;16.40;53.50;;;;;;5087137;28;20530;-66
2021/01/12 04:07:14;;;;;;;1.00;0.98;;;16.40;53.50;;;;;;5087225;28;20248;-65
2021/01/12 04:09:40;;;;;;;0.88;0.75;;;16.40;53.50;;;;;;5087341;28;20546;-65
2021/01/12 04:12:06;;;;;;;1.17;1.10;;;16.40;53.60;;;;;;5087085;28;20180;-65
2021/01/12 04:14:31;;;;;;;0.80;0.80;;;16.40;53.50;;;;;;5086958;28;20181;-66
2021/01/12 04:16:57;;;;;;;1.13;1.05;;;16.40;53.50;;;;;;5087394;28;20177;-66
2021/01/12 04:19:23;;;;;;;0.90;0.90;;;16.40;53.50;;;;;;5087151;28;20212;-66
2021/01/12 04:21:48;;;;;;;1.27;1.00;;;16.40;53.60;;;;;;5087302;28;20174;-65
2021/01/12 04:24:14;;;;;;;1.48;1.13;;;16.30;53.50;;;;;;5087225;28;20223;-67
2021/01/12 04:26:39;;;;;;;0.90;0.90;;;16.30;53.50;;;;;;5087251;28;20177;-65
2021/01/12 04:29:05;;;;;;;1.38;0.77;;;16.30;53.50;;;;;;5087210;28;20566;-65
2021/01/12 04:31:31;;;;;;;1.25;0.80;;;16.30;53.50;;;;;;5086912;28;20251;-64
2021/01/12 04:33:56;;;;;;;1.10;1.00;;;16.30;53.50;;;;;;5068603;28;20619;-65
2021/01/12 04:36:22;;;;;;;0.80;0.80;;;16.30;53.60;;;;;;5086862;28;20188;-65
2021/01/12 04:38:47;;;;;;;0.90;0.90;;;16.30;53.60;;;;;;5086932;28;20791;-66
2021/01/12 04:41:15;;;;;;;1.15;0.90;;;16.30;53.60;;;;;;5086804;28;20174;-66
2021/01/12 04:43:40;;;;;;;1.10;1.00;;;16.30;53.60;;;;;;5086972;28;20188;-66
2021/01/12 04:46:06;;;;;;;1.00;1.00;;;16.30;53.50;;;;;;5086748;28;20174;-66
2021/01/12 04:48:31;;;;;;;1.08;0.90;;;16.30;53.60;;;;;;5086475;28;20177;-66
2021/01/12 04:51:07;;;;;;;0.80;0.80;;;16.30;53.60;;;;;;5086181;28;20178;-66
2021/01/12 04:53:37;;;;;;;1.85;1.02;;;16.30;53.60;;;;;;5069571;28;20168;-65
2021/01/12 04:56:03;;;;;;;0.80;0.80;;;16.30;53.60;;;;;;5086515;28;20620;-65
2021/01/12 04:58:41;;;;;;;1.50;0.85;;;16.30;53.60;;;;;;5085973;28;20170;-66
2021/01/12 05:01:14;;;;;;;1.02;0.90;;;16.30;53.60;;;;;;5086189;28;20177;-65
2021/01/12 05:03:47;;;;;;;0.77;0.77;;;16.30;53.60;;;;;;5069056;28;20170;-65
2021/01/12 05:06:13;;;;;;;0.85;0.80;;;16.30;53.60;;;;;;5085715;28;20176;-66
2021/01/12 05:08:45;;;;;;;0.77;0.77;;;16.30;53.60;;;;;;5051585;28;20170;-65
2021/01/12 05:11:13;;;;;;;1.23;1.10;;;16.30;53.60;;;;;;5068075;28;20169;-66
2021/01/12 05:13:45;;;;;;;0.80;0.80;;;16.20;53.60;;;;;;5066930;28;20181;-66
2021/01/12 05:16:11;;;;;;;0.90;0.90;;;16.20;53.60;;;;;;5085869;28;20253;-66
2021/01/12 05:18:38;;;;;;;0.82;0.82;;;16.20;53.60;;;;;;5086054;28;20252;-66
2021/01/12 05:21:05;;;;;;;0.88;0.80;;;16.20;53.60;;;;;;5085807;28;20622;-66
2021/01/12 05:23:31;;;;;;;1.10;1.00;;;16.20;53.60;;;;;;5067857;28;20168;-66
2021/01/12 05:25:58;;;;;;;0.70;0.70;;;16.20;53.70;;;;;;5051047;28;20174;-66
2021/01/12 05:28:24;;;;;;;0.80;0.80;;;16.20;53.70;;;;;;5067798;28;20193;-66
2021/01/12 05:30:49;;;;;;;0.85;0.77;;;16.20;53.60;;;;;;5085756;28;20211;-66
2021/01/12 05:33:18;;;;;;;0.70;0.70;;;16.20;53.70;;;;;;5050858;28;20174;-66
2021/01/12 05:35:45;;;;;;;0.90;0.90;;;16.20;53.70;;;;;;5085603;28;20178;-65
2021/01/12 05:38:10;;;;;;;0.90;0.90;;;16.20;53.70;;;;;;5085493;28;20735;-66
2021/01/12 05:40:37;;;;;;;0.77;0.77;;;16.20;53.70;;;;;;5085481;28;20206;-66
2021/01/12 05:43:09;;;;;;;0.73;0.73;;;16.20;53.70;;;;;;5085275;28;20251;-66
2021/01/12 05:45:38;;;;;;;0.90;0.85;;;16.20;53.70;;;;;;5085246;28;20228;-66
2021/01/12 05:48:07;;;;;;;1.23;0.90;;;16.20;53.70;;;;;;5085373;28;20173;-66
2021/01/12 05:50:33;;;;;;;0.77;0.77;;;16.20;53.70;;;;;;5067775;28;20177;-67
2021/01/12 05:53:11;;;;;;;0.93;0.93;;;16.20;53.80;;;;;;5067526;28;20180;-65
2021/01/12 05:55:41;;;;;;;0.75;0.75;;;16.10;53.70;;;;;;5068214;28;20185;-66
2021/01/12 05:58:17;;;;;;;0.70;0.70;;;16.10;53.70;;;;;;5085198;28;20253;-65
2021/01/12 06:00:43;;;;;;;1.27;0.85;;;16.10;53.70;;;;;;5067903;28;20201;-66
2021/01/12 06:03:12;;;;;;;0.60;0.60;;;16.10;53.70;;;;;;5085093;28;20189;-66
2021/01/12 06:05:38;;;;;;;0.82;0.80;;;16.20;53.80;;;;;;5050429;28;20178;-65
2021/01/12 06:08:04;;;;;;;0.85;0.80;;;16.30;53.90;;;;;;5049876;28;20239;-66
2021/01/12 06:10:30;;;;;;;0.60;0.60;;;16.50;54.60;;;;;;5085005;28;20941;-66
2021/01/12 06:12:56;;;;;;;0.60;0.60;;;16.70;53.70;;;;;;5050746;28;20173;-66
2021/01/12 06:15:23;;;;;;;1.05;0.80;;;16.90;53.40;;;;;;5066854;28;20589;-66
2021/01/12 06:17:49;;;;;;;0.93;0.65;;;17.10;53.10;;;;;;5066943;28;20968;-66
2021/01/12 06:20:16;;;;;;;0.70;0.70;;;17.40;52.40;;;;;;5049923;28;20227;-66
2021/01/12 06:22:42;;;;;;;0.63;0.63;;;17.70;51.90;;;;;;5084674;28;20680;-66
2021/01/12 06:25:08;;;;;;;0.70;0.70;;;17.90;51.50;;;;;;5048816;28;20170;-67
2021/01/12 06:27:35;;;;;;;0.45;0.45;;;18.20;51.10;;;;;;5050267;28;20178;-66
2021/01/12 06:30:03;;;;;;;0.70;0.70;;;18.30;50.90;;;;;;5066680;28;20202;-66
2021/01/12 06:32:29;;;;;;;0.60;0.60;;;18.40;50.70;;;;;;5084633;28;20213;-66
2021/01/12 06:34:59;;;;;;;0.43;0.43;;;18.50;50.70;;;;;;5066568;28;20177;-66
2021/01/12 06:37:25;;;;;;;0.70;0.70;;;18.50;50.70;;;;;;5066518;28;20204;-66
2021/01/12 06:39:57;;;;;;;0.70;0.50;;;18.50;50.50;;;;;;5084499;28;20210;-66
2021/01/12 06:42:29;;;;;;;0.60;0.60;;;18.60;50.50;;;;;;5084629;28;20170;-66
2021/01/12 06:44:57;;;;;;;0.40;0.40;;;18.60;50.40;;;;;;5066391;28;20166;-67
2021/01/12 06:47:27;;;;;;;0.50;0.50;;;18.70;50.40;;;;;;5066315;28;20208;-67
2021/01/12 06:50:04;;;;;;;0.50;0.50;;;18.60;50.40;;;;;;5084281;28;20176;-67
2021/01/12 06:52:30;;;;;;;0.52;0.52;;;18.60;50.40;;;;;;5084634;28;20276;-66
2021/01/12 06:55:07;;;;;;;0.50;0.40;;;18.60;50.50;;;;;;5084663;28;20280;-67
2021/01/12 06:57:32;;;;;;;0.60;0.60;;;18.70;50.50;;;;;;5049781;28;20539;-66
2021/01/12 06:59:58;;;;;;;0.65;0.60;;;18.60;50.50;;;;;;5084211;28;20205;-66
2021/01/12 07:02:25;;;;;;;0.73;0.50;;;18.60;50.70;;;;;;5066497;28;20178;-65
2021/01/12 07:04:54;;;;;;;0.63;0.57;;;18.60;50.70;;;;;;5066641;28;20173;-67
2021/01/12 07:07:24;;;;;;;0.40;0.40;;;18.50;50.80;;;;;;5084186;28;20178;-65
2021/01/12 07:09:59;;;;;;;0.40;0.40;;;18.40;51.00;;;;;;5065985;28;20571;-65
2021/01/12 07:12:26;;;;;;;0.40;0.40;;;18.30;51.20;;;;;;5083964;28;20178;-65
2021/01/12 07:14:54;;;;;;;0.50;0.50;;;18.20;51.40;;;;;;5084128;28;20178;-66
2021/01/12 07:17:28;;;;;;;0.40;0.40;;;18.20;51.50;;;;;;5066082;28;21032;-66
2021/01/12 07:20:06;;;;;;;0.55;0.55;;;18.10;51.50;;;;;;5084498;28;21050;-65
2021/01/12 07:22:32;;;;;;;0.70;0.50;;;18.10;51.50;;;;;;5083694;28;20162;-66
2021/01/12 07:24:59;;;;;;;0.38;0.38;;;18.10;51.60;;;;;;5066179;28;20201;-66
2021/01/12 07:27:24;;;;;;;0.50;0.50;;;18.00;51.70;;;;;;5049085;28;20208;-66
2021/01/12 07:29:50;;;;;;;0.70;0.40;;;18.00;52.00;;;;;;5084044;28;20197;-65
2021/01/12 07:32:30;;;;;;;0.65;0.50;;;17.90;52.00;;;;;;5048946;28;20186;-65
2021/01/12 07:34:57;;;;;;;0.50;0.50;;;17.80;52.10;;;;;;5066056;28;20236;-66
2021/01/12 07:37:31;;;;;;;0.40;0.40;;;17.70;52.30;;;;;;5069909;28;20174;-65
2021/01/12 07:39:57;;;;;;;0.52;0.52;;;17.70;52.40;;;;;;5087722;28;20205;-66
2021/01/12 07:42:23;;;;;;;2.13;0.52;;;17.70;52.40;;;;;;5069667;28;20170;-66
2021/01/12 07:44:48;;;;;;;0.63;0.40;;;17.70;52.40;;;;;;5069927;28;20697;-67
2021/01/12 07:47:14;;;;;;;0.73;0.43;;;17.70;52.40;;;;;;5087663;28;20264;-67
2021/01/12 07:49:41;;;;;;;0.50;0.40;;;17.70;52.40;;;;;;5052870;28;20174;-67
2021/01/12 07:52:07;;;;;;;0.40;0.40;;;17.70;52.30;;;;;;5069853;28;20645;-66
2021/01/12 07:54:33;;;;;;;0.40;0.40;;;17.70;52.30;;;;;;5052996;28;20173;-65
2021/01/12 07:56:59;;;;;;;0.60;0.60;;;17.70;52.60;;;;;;5069596;28;20170;-64
2021/01/12 07:59:24;;;;;;;1.15;0.40;;;17.60;52.80;;;;;;5069529;28;20254;-66
2021/01/12 08:01:50;;;;;;;0.85;0.50;;;17.50;52.80;;;;;;5069612;28;20272;-65
2021/01/12 08:04:15;;;;;;;1.88;0.70;;;17.50;53.10;;;;;;5087508;28;20174;-64
2021/01/12 08:06:46;;;;;;;0.52;0.50;;;17.50;53.30;;;;;;5052970;28;20170;-65
2021/01/12 08:09:20;;;;;;;2.05;0.55;;;17.50;53.40;;;;;;5053765;28;20174;-64
2021/01/12 08:11:45;;;;;;;1.08;0.68;;;17.50;53.40;;;;;;5087088;28;20181;-64
2021/01/12 08:14:11;;;;;;;0.40;0.40;;;17.50;53.30;;;;;;5086968;28;20174;-64
2021/01/12 08:16:36;;;;;;;1.77;0.70;;;17.60;53.20;;;;;;5087016;28;20182;-64
2021/01/12 08:19:02;;;;;;;0.60;0.60;;;17.60;53.20;;;;;;5052007;28;20289;-64
2021/01/12 08:21:28;;;;;;;0.50;0.50;;;17.60;53.30;;;;;;5087062;28;20173;-65
2021/01/12 08:24:00;;;;;;;0.47;0.47;;;17.60;53.10;;;;;;5069080;28;20264;-65
2021/01/12 08:26:27;;;;;;;0.55;0.50;;;17.60;53.10;;;;;;5087008;28;20204;-66
2021/01/12 08:28:53;;;;;;;0.80;0.60;;;17.50;53.10;;;;;;5068882;28;20204;-64
2021/01/12 08:31:18;;;;;;;0.50;0.50;;;17.50;53.10;;;;;;5052120;28;20174;-65
2021/01/12 08:33:44;;;;;;;0.60;0.60;;;17.50;53.20;;;;;;5068790;28;20185;-65
2021/01/12 08:36:12;;;;;;;0.57;0.40;;;17.50;53.30;;;;;;5051977;28;20193;-65
2021/01/12 08:38:38;;;;;;;0.65;0.52;;;17.50;53.30;;;;;;5068181;28;20197;-64
2021/01/12 08:41:07;;;;;;;0.65;0.65;;;17.50;53.20;;;;;;5051943;28;20177;-64
2021/01/12 08:43:32;;;;;;;0.55;0.50;;;17.60;53.20;;;;;;5051909;28;20256;-63
2021/01/12 08:45:59;;;;;;;0.50;0.50;;;17.50;53.10;;;;;;5086498;28;20245;-65
2021/01/12 08:48:24;;;;;;;0.93;0.40;;;17.50;53.10;;;;;;5085319;28;20177;-65
2021/01/12 08:50:50;;;;;;;0.40;0.40;;;17.50;53.10;;;;;;5086303;28;20169;-64
2021/01/12 08:53:16;;;;;;;0.43;0.43;;;17.50;53.10;;;;;;5086121;28;20186;-64
2021/01/12 08:55:42;;;;;;;0.57;0.55;;;17.60;53.10;;;;;;5068367;28;20203;-65
2021/01/12 08:58:08;;;;;;;0.65;0.60;;;17.60;53.00;;;;;;5068515;28;20178;-66
2021/01/12 09:00:34;;;;;;;1.38;0.50;;;17.60;52.90;;;;;;5068221;28;20221;-65
2021/01/12 09:03:00;;;;;;;0.43;0.40;;;17.70;52.90;;;;;;5067699;28;20174;-64
2021/01/12 09:05:26;;;;;;;0.40;0.40;;;17.70;52.90;;;;;;5085976;28;20174;-63
2021/01/12 09:08:20;;;;;;;0.65;0.50;;;17.60;52.90;;;;;;5086203;28;20205;-64
2021/01/12 09:10:45;;;;;;;0.50;0.50;;;17.70;52.90;;;;;;5082746;28;20551;-64
2021/01/12 09:13:11;;;;;;;0.35;0.35;;;17.70;52.90;;;;;;5086059;28;20170;-66
2021/01/12 09:15:47;;;;;;;0.52;0.40;;;17.60;52.90;;;;;;5085922;28;20682;-65
2021/01/12 09:18:25;;;;;;;0.50;0.50;;;17.60;53.00;;;;;;5068208;28;20166;-63
2021/01/12 09:20:54;;;;;;;0.65;0.52;;;17.60;53.00;;;;;;5085606;28;20383;-65
2021/01/12 09:23:19;;;;;;;0.70;0.63;;;17.60;52.90;;;;;;5087198;28;20264;-64
2021/01/12 09:25:52;;;;;;;0.47;0.47;;;17.70;52.90;;;;;;5094221;28;20184;-64
2021/01/12 09:28:19;;;;;;;0.80;0.55;;;17.70;52.90;;;;;;5080835;28;20207;-65
2021/01/12 09:30:46;;;;;;;1.15;0.50;;;17.70;52.90;;;;;;5071457;28;20178;-64
2021/01/12 09:33:22;;;;;;;0.63;0.55;;;17.70;52.90;;;;;;5069206;28;20170;-65
2021/01/12 09:35:48;;;;;;;0.45;0.45;;;17.70;52.90;;;;;;5085401;28;20187;-65
2021/01/12 09:38:13;;;;;;;0.40;0.40;;;17.60;53.00;;;;;;5085386;28;20182;-62
2021/01/12 09:40:39;;;;;;;1.05;0.93;;;17.60;53.30;;;;;;5094130;28;20572;-62
2021/01/12 09:43:04;;;;;;;2.63;0.80;;;17.50;53.90;;;;;;5105687;28;20215;-62
2021/01/12 09:45:30;;;;;;;1.83;1.40;;;17.50;54.20;;;;;;5105577;28;20165;-64
2021/01/12 09:47:56;;;;;;;1.70;0.70;;;17.40;54.60;;;;;;5105564;28;20536;-65
2021/01/12 09:50:21;;;;;;;1.85;0.80;;;17.40;54.50;;;;;;5105700;28;20626;-64
2021/01/12 09:52:47;;;;;;;1.65;0.90;;;17.50;54.50;;;;;;5105079;28;20170;-64
2021/01/12 09:55:13;;;;;;;0.55;0.55;;;17.50;54.40;;;;;;5105640;28;20249;-64
2021/01/12 09:57:38;;;;;;;0.90;0.57;;;17.60;54.30;;;;;;5096733;28;20173;-64
2021/01/12 10:00:05;;;;;;;1.40;0.68;;;17.60;54.30;;;;;;5084301;28;20697;-64
2021/01/12 10:02:32;;;;;;;1.20;0.70;;;17.60;54.30;;;;;;5083983;28;20166;-64
2021/01/12 10:04:58;;;;;;;0.60;0.60;;;17.60;54.40;;;;;;5084131;28;20196;-64
2021/01/12 10:07:23;;;;;;;1.05;0.50;;;17.60;54.30;;;;;;5084036;28;20628;-64
2021/01/12 10:09:49;;;;;;;0.95;0.60;;;17.50;54.40;;;;;;5084435;28;20222;-64
2021/01/12 10:12:15;;;;;;;1.33;0.68;;;17.50;54.50;;;;;;5084045;28;20192;-64
2021/01/12 10:14:40;;;;;;;1.42;0.77;;;17.50;54.60;;;;;;5084571;28;20266;-64
2021/01/12 10:17:08;;;;;;;1.77;0.70;;;17.40;54.50;;;;;;5084102;28;20174;-64
2021/01/12 10:19:34;;;;;;;2.28;0.63;;;17.40;54.60;;;;;;5084169;28;20205;-65
2021/01/12 10:21:59;;;;;;;0.65;0.52;;;17.40;54.60;;;;;;5083872;28;20646;-65
2021/01/12 10:24:25;;;;;;;1.98;0.57;;;17.50;54.70;;;;;;5083925;28;20174;-65
2021/01/12 10:26:54;;;;;;;1.77;0.70;;;17.50;54.60;;;;;;5083958;28;20280;-65
2021/01/12 10:29:21;;;;;;;1.25;0.68;;;17.50;54.60;;;;;;5081785;28;20181;-65
2021/01/12 10:31:48;;;;;;;0.80;0.60;;;17.50;54.60;;;;;;5084563;28;20173;-66
2021/01/12 10:34:13;;;;;;;4.30;0.93;;;17.50;54.60;;;;;;5083774;28;20223;-66
2021/01/12 10:36:39;;;;;;;0.68;0.68;;;17.50;54.60;;;;;;5083823;28;20632;-65
2021/01/12 10:39:05;;;;;;;0.75;0.52;;;17.50;54.60;;;;;;5083899;28;20202;-67
2021/01/12 10:41:37;;;;;;;1.27;0.47;;;17.50;54.60;;;;;;5083839;28;20705;-66
2021/01/12 10:44:03;;;;;;;1.45;0.57;;;17.50;54.70;;;;;;5063716;28;20180;-66
2021/01/12 10:46:28;;;;;;;2.38;0.68;;;17.40;54.60;;;;;;5083443;28;20174;-66
2021/01/12 10:48:54;;;;;;;0.43;0.43;;;17.40;54.60;;;;;;5083374;28;20708;-67
2021/01/12 10:51:19;;;;;;;0.68;0.40;;;17.50;54.70;;;;;;5083460;28;20615;-67
2021/01/12 10:53:45;;;;;;;0.82;0.60;;;17.50;54.70;;;;;;5083401;28;20170;-67
2021/01/12 10:56:15;;;;;;;1.00;0.40;;;17.50;54.60;;;;;;5083610;28;20242;-66
2021/01/12 10:58:40;;;;;;;2.08;0.70;;;17.50;54.40;;;;;;5080878;28;20177;-66
2021/01/12 11:01:06;;;;;;;0.75;0.60;;;17.60;54.50;;;;;;5083361;28;20239;-67
2021/01/12 11:03:32;;;;;;;0.80;0.50;;;17.60;54.40;;;;;;5083544;28;20177;-66
2021/01/12 11:05:57;;;;;;;0.40;0.40;;;17.50;54.50;;;;;;5084232;28;20184;-66
2021/01/12 11:08:25;;;;;;;1.38;0.40;;;17.50;54.60;;;;;;5084464;28;20178;-66
2021/01/12 11:10:51;;;;;;;0.55;0.40;;;17.50;54.60;;;;;;5067603;28;20185;-65
2021/01/12 11:13:17;;;;;;;0.57;0.57;;;17.50;54.60;;;;;;5089611;28;20166;-64
2021/01/12 11:15:44;;;;;;;1.15;0.60;;;17.50;54.90;;;;;;5087915;28;20523;-65
2021/01/12 11:18:10;;;;;;;2.75;1.00;;;17.50;55.00;;;;;;5087949;28;20560;-64
2021/01/12 11:20:36;;;;;;;1.48;0.80;;;17.50;55.20;;;;;;5087930;28;20212;-66
2021/01/12 11:23:02;;;;;;;1.30;0.60;;;17.40;55.20;;;;;;5087921;28;20165;-65
2021/01/12 11:25:28;;;;;;;0.77;0.50;;;17.50;55.00;;;;;;5088306;28;20255;-66
2021/01/12 11:27:53;;;;;;;1.60;0.63;;;17.50;55.10;;;;;;5070524;28;20165;-65
2021/01/12 11:30:19;;;;;;;2.10;0.70;;;17.50;55.00;;;;;;5070053;28;20174;-67
2021/01/12 11:32:48;;;;;;;1.23;0.60;;;17.60;54.90;;;;;;5104177;28;20656;-67
2021/01/12 11:35:14;;;;;;;0.68;0.63;;;17.80;54.60;;;;;;5108537;28;20165;-65
2021/01/12 11:37:40;;;;;;;1.35;0.50;;;18.00;54.40;;;;;;5108450;28;20519;-66
2021/01/12 11:40:08;;;;;;;1.33;0.50;;;18.40;53.90;;;;;;5108336;28;20237;-65
2021/01/12 11:42:33;;;;;;;1.00;0.65;;;18.70;53.40;;;;;;5090150;28;20616;-65
2021/01/12 11:44:59;;;;;;;0.63;0.50;;;19.00;52.80;;;;;;5108490;28;20172;-65
2021/01/12 11:47:25;;;;;;;0.77;0.47;;;19.30;52.30;;;;;;5107685;28;20690;-64
2021/01/12 11:49:50;;;;;;;0.82;0.63;;;19.50;51.80;;;;;;5108077;28;20542;-64
2021/01/12 11:52:16;;;;;;;1.13;0.70;;;19.80;51.40;;;;;;5107872;28;20626;-65
2021/01/12 11:54:42;;;;;;;0.88;0.40;;;19.90;51.10;;;;;;5107712;28;20649;-67
2021/01/12 11:57:09;;;;;;;1.60;0.70;;;20.00;51.00;;;;;;5089983;28;20165;-63
2021/01/12 11:59:35;;;;;;;1.98;0.55;;;20.10;50.90;;;;;;5089871;28;20218;-63
2021/01/12 12:02:01;;;;;;;1.65;0.82;;;20.10;50.90;;;;;;5107504;28;20173;-63
2021/01/12 12:04:26;;;;;;;1.83;0.70;;;20.00;51.00;;;;;;5090088;28;20173;-63
2021/01/12 12:06:53;;;;;;;0.75;0.50;;;20.00;51.10;;;;;;5089694;28;20205;-63
2021/01/12 12:09:19;;;;;;;1.17;0.60;;;19.90;51.10;;;;;;5107685;28;20692;-62
2021/01/12 12:11:45;;;;;;;4.05;0.82;;;19.90;51.20;;;;;;5089433;28;20173;-63
2021/01/12 12:14:11;;;;;;;2.05;0.50;;;19.90;51.40;;;;;;5107685;28;20268;-62
2021/01/12 12:16:37;;;;;;;0.63;0.40;;;19.80;51.50;;;;;;5089220;28;20696;-64
2021/01/12 12:19:03;;;;;;;1.70;0.68;;;19.80;51.60;;;;;;5107330;28;20214;-64
2021/01/12 12:21:29;;;;;;;0.65;0.40;;;19.80;51.60;;;;;;5107149;28;20180;-64
2021/01/12 12:23:55;;;;;;;3.90;0.70;;;19.80;51.60;;;;;;5107761;28;20185;-64
2021/01/12 12:26:21;;;;;;;1.13;0.63;;;19.70;51.70;;;;;;5107560;28;20173;-64
2021/01/12 12:28:46;;;;;;;2.33;0.60;;;19.70;51.70;;;;;;5107427;28;20197;-64
2021/01/12 12:31:12;;;;;;;2.15;0.70;;;19.80;51.80;;;;;;5103531;28;20964;-64
2021/01/12 12:33:38;;;;;;;1.20;0.70;;;19.90;51.60;;;;;;5068839;28;20955;-60
2021/01/12 12:36:08;;;;;;;2.47;0.70;;;20.00;51.60;;;;;;5086121;28;20173;-65
2021/01/12 12:38:36;;;;;;;1.15;0.52;;;20.00;51.40;;;;;;5086819;28;20181;-64
2021/01/12 12:41:11;;;;;;;0.98;0.52;;;20.10;51.30;;;;;;5086638;28;20225;-63
2021/01/12 12:43:37;;;;;;;1.75;0.50;;;20.20;51.10;;;;;;5086415;28;20227;-63
2021/01/12 12:46:03;;;;;;;3.13;0.73;;;20.30;51.10;;;;;;5086520;28;20166;-60